createdAt,value
2022-12-09T00:01:08.093Z,13.63
2022-12-09T00:03:35.374Z,13.35
2022-12-09T00:06:27.176Z,14.50
2022-12-09T00:08:54.977Z,13.60
2022-12-09T00:11:22.410Z,13.07
2022-12-09T00:13:50.895Z,13.27
2022-12-09T00:16:18.385Z,13.65
2022-12-09T00:18:45.845Z,13.50
2022-12-09T00:21:21.060Z,13.65
2022-12-09T00:23:48.668Z,13.27
2022-12-09T00:26:16.698Z,13.93
2022-12-09T00:28:44.277Z,16.40
2022-12-09T00:31:14.298Z,18.88
2022-12-09T00:33:41.451Z,19.85
2022-12-09T00:36:14.685Z,21.67
2022-12-09T00:38:41.553Z,19.40
2022-12-09T00:41:08.505Z,17.13
2022-12-09T00:43:35.291Z,16.77
2022-12-09T00:46:02.224Z,15.50
2022-12-09T00:48:29.348Z,15.32
2022-12-09T00:50:56.493Z,13.75
2022-12-09T00:53:23.479Z,14.15
2022-12-09T00:55:50.492Z,12.88
2022-12-09T00:58:17.192Z,14.55
2022-12-09T01:00:44.123Z,13.48
2022-12-09T01:03:15.552Z,13.75
2022-12-09T01:05:43.482Z,12.25
2022-12-09T01:08:11.661Z,12.63
2022-12-09T01:10:40.467Z,12.00
2022-12-09T01:13:07.708Z,12.30
2022-12-09T01:15:34.953Z,13.32
2022-12-09T01:18:01.775Z,12.57
2022-12-09T01:20:28.512Z,12.38
2022-12-09T01:22:55.568Z,12.18
2022-12-09T01:25:22.472Z,12.45
2022-12-09T01:27:49.217Z,12.98
2022-12-09T01:30:16.097Z,13.05
2022-12-09T01:32:43.655Z,11.82
2022-12-09T01:35:10.762Z,12.30
2022-12-09T01:37:38.389Z,13.02
2022-12-09T01:40:09.360Z,13.07
2022-12-09T01:42:36.397Z,12.43
2022-12-09T01:45:30.608Z,13.27
2022-12-09T01:48:09.133Z,14.20
2022-12-09T01:50:37.948Z,11.98
2022-12-09T01:53:06.026Z,12.20
2022-12-09T01:55:32.897Z,14.60
2022-12-09T01:58:00.142Z,15.35
2022-12-09T02:00:26.885Z,15.98
2022-12-09T02:02:55.851Z,15.95
2022-12-09T02:05:26.766Z,14.88
2022-12-09T02:07:53.651Z,15.60
2022-12-09T02:10:21.264Z,16.42
2022-12-09T02:13:14.328Z,15.80
2022-12-09T02:15:46.177Z,16.63
2022-12-09T02:18:29.388Z,15.25
2022-12-09T02:21:08.823Z,15.70
2022-12-09T02:23:38.114Z,15.93
2022-12-09T02:26:44.017Z,16.08
2022-12-09T02:29:38.071Z,16.50
2022-12-09T02:32:20.039Z,16.33
2022-12-09T02:34:55.512Z,17.40
2022-12-09T02:37:31.308Z,16.52
2022-12-09T02:40:01.755Z,17.48
2022-12-09T02:42:34.672Z,19.13
2022-12-09T02:45:05.068Z,16.70
2022-12-09T02:47:35.810Z,15.90
2022-12-09T02:50:07.825Z,16.35
2022-12-09T02:52:36.456Z,16.13
2022-12-09T02:55:09.526Z,15.50
2022-12-09T02:57:38.769Z,34.58
2022-12-09T03:00:07.257Z,32.45
2022-12-09T03:02:43.840Z,17.55
2022-12-09T03:05:26.087Z,14.55
2022-12-09T03:07:55.847Z,15.18
2022-12-09T03:10:32.455Z,15.25
2022-12-09T03:13:10.756Z,15.38
2022-12-09T03:15:41.691Z,15.18
2022-12-09T03:18:13.401Z,15.25
2022-12-09T03:20:41.634Z,14.68
2022-12-09T03:23:10.982Z,14.85
2022-12-09T03:25:48.889Z,14.30
2022-12-09T03:28:24.528Z,13.68
2022-12-09T03:30:53.969Z,14.02
2022-12-09T03:33:23.068Z,14.63
2022-12-09T03:35:54.210Z,13.13
2022-12-09T03:38:23.519Z,13.05
2022-12-09T03:40:55.278Z,13.93
2022-12-09T03:43:35.304Z,14.60
2022-12-09T03:46:02.101Z,12.68
2022-12-09T03:48:29.823Z,12.05
2022-12-09T03:51:05.843Z,13.20
2022-12-09T03:53:41.435Z,13.50
2022-12-09T03:56:19.715Z,12.48
2022-12-09T03:58:48.716Z,12.48
2022-12-09T04:01:16.413Z,11.23
2022-12-09T04:03:46.206Z,10.55
2022-12-09T04:06:13.196Z,10.10
2022-12-09T04:08:39.855Z,9.90
2022-12-09T04:11:06.897Z,11.60
2022-12-09T04:13:33.473Z,10.63
2022-12-09T04:16:00.586Z,9.65
2022-12-09T04:18:27.465Z,10.75
2022-12-09T04:20:54.560Z,15.45
2022-12-09T04:23:21.576Z,24.85
2022-12-09T04:25:48.765Z,49.90
2022-12-09T04:28:15.392Z,28.33
2022-12-09T04:30:46.490Z,15.70
2022-12-09T04:33:13.355Z,19.80
2022-12-09T04:35:40.037Z,14.68
2022-12-09T04:38:06.601Z,13.75
2022-12-09T04:40:33.282Z,12.80
2022-12-09T04:42:59.887Z,11.90
2022-12-09T04:45:26.800Z,14.13
2022-12-09T04:47:53.450Z,12.88
2022-12-09T04:50:20.303Z,11.60
2022-12-09T04:52:46.888Z,13.13
2022-12-09T04:55:14.335Z,18.52
2022-12-09T04:57:40.941Z,14.02
2022-12-09T05:00:09.059Z,20.83
2022-12-09T05:02:36.479Z,16.20
2022-12-09T05:05:04.709Z,55.90
2022-12-09T05:07:32.182Z,30.65
2022-12-09T05:09:59.177Z,21.15
2022-12-09T05:12:26.424Z,15.98
2022-12-09T05:14:53.442Z,12.98
2022-12-09T05:17:20.367Z,12.55
2022-12-09T05:19:47.482Z,11.40
2022-12-09T05:22:17.771Z,12.07
2022-12-09T05:24:45.061Z,9.95
2022-12-09T05:27:12.074Z,12.10
2022-12-09T05:29:39.063Z,11.65
2022-12-09T05:32:06.461Z,19.90
2022-12-09T05:34:33.676Z,27.88
2022-12-09T05:37:00.752Z,27.67
2022-12-09T05:39:27.948Z,27.58
2022-12-09T05:41:54.929Z,23.30
2022-12-09T05:44:22.055Z,21.48
2022-12-09T05:46:49.190Z,16.33
2022-12-09T05:49:16.186Z,13.80
2022-12-09T05:51:43.250Z,14.73
2022-12-09T05:54:10.410Z,13.60
2022-12-09T05:56:38.702Z,11.77
2022-12-09T05:59:09.912Z,12.38
2022-12-09T06:01:36.545Z,12.82
2022-12-09T06:04:03.894Z,10.60
2022-12-09T06:06:32.114Z,10.82
2022-12-09T06:09:01.487Z,11.23
2022-12-09T06:11:29.113Z,10.20
2022-12-09T06:13:56.146Z,10.43
2022-12-09T06:16:23.410Z,10.05
2022-12-09T06:18:50.768Z,8.60
2022-12-09T06:21:20.910Z,10.02
2022-12-09T06:23:48.907Z,15.43
2022-12-09T06:26:21.500Z,15.57
2022-12-09T06:28:48.825Z,22.08
2022-12-09T06:31:16.575Z,25.65
2022-12-09T06:34:00.042Z,16.85
2022-12-09T06:36:30.298Z,20.27
2022-12-09T06:39:03.089Z,22.50
2022-12-09T06:41:34.578Z,21.60
2022-12-09T06:44:01.455Z,18.92
2022-12-09T06:46:28.810Z,22.02
2022-12-09T06:48:56.600Z,22.27
2022-12-09T06:51:25.030Z,15.60
2022-12-09T06:53:52.735Z,17.48
2022-12-09T06:56:19.687Z,20.27
2022-12-09T06:58:47.440Z,18.30
2022-12-09T07:01:23.103Z,17.27
2022-12-09T07:03:53.199Z,17.95
2022-12-09T07:06:34.459Z,20.92
2022-12-09T07:09:05.530Z,19.20
2022-12-09T07:11:32.851Z,24.33
2022-12-09T07:13:59.737Z,23.25
2022-12-09T07:16:27.568Z,19.95
2022-12-09T07:18:54.599Z,17.65
2022-12-09T07:21:22.795Z,14.05
2022-12-09T07:23:50.548Z,11.63
2022-12-09T07:26:18.351Z,14.85
2022-12-09T07:28:50.405Z,11.52
2022-12-09T07:31:28.444Z,6.60
2022-12-09T07:33:57.609Z,7.03
2022-12-09T07:36:28.656Z,8.20
2022-12-09T07:38:57.171Z,9.02
2022-12-09T07:41:24.614Z,9.35
2022-12-09T07:43:52.270Z,9.50
2022-12-09T07:46:20.788Z,12.55
2022-12-09T07:48:48.315Z,18.90
2022-12-09T07:51:15.823Z,15.00
2022-12-09T07:53:43.127Z,17.10
2022-12-09T07:56:14.801Z,19.17
2022-12-09T07:58:43.123Z,12.88
2022-12-09T08:01:18.809Z,14.80
2022-12-09T08:03:47.284Z,16.83
2022-12-09T08:06:17.072Z,16.38
2022-12-09T08:08:44.289Z,18.80
2022-12-09T08:11:14.189Z,18.92
2022-12-09T08:13:44.566Z,17.63
2022-12-09T08:16:14.148Z,17.27
2022-12-09T08:18:42.224Z,18.27
2022-12-09T08:21:15.021Z,19.00
2022-12-09T08:23:42.714Z,17.77
2022-12-09T08:26:11.275Z,19.90
2022-12-09T08:28:38.096Z,20.50
2022-12-09T08:31:10.717Z,18.25
2022-12-09T08:33:38.283Z,17.75
2022-12-09T08:36:28.500Z,16.00
2022-12-09T08:38:58.120Z,15.85
2022-12-09T08:41:35.975Z,13.65
2022-12-09T08:44:09.588Z,12.63
2022-12-09T08:46:39.101Z,13.25
2022-12-09T08:49:06.405Z,13.93
2022-12-09T08:51:34.112Z,12.63
2022-12-09T08:54:01.931Z,12.45
2022-12-09T08:56:29.324Z,11.95
2022-12-09T08:58:56.604Z,13.05
2022-12-09T09:01:26.860Z,12.20
2022-12-09T09:03:54.028Z,12.55
2022-12-09T09:06:21.547Z,13.00
2022-12-09T09:08:48.901Z,12.57
2022-12-09T09:11:23.242Z,19.08
2022-12-09T09:13:53.886Z,14.02
2022-12-09T09:16:23.806Z,18.88
2022-12-09T09:18:51.675Z,13.38
2022-12-09T09:21:24.272Z,12.13
2022-12-09T09:23:51.177Z,14.90
2022-12-09T09:26:20.769Z,12.07
2022-12-09T09:28:48.749Z,12.30
2022-12-09T09:31:18.633Z,11.57
2022-12-09T09:33:47.888Z,11.60
2022-12-09T09:36:17.633Z,11.05
2022-12-09T09:38:44.671Z,10.45
2022-12-09T09:41:20.359Z,11.48
2022-12-09T09:43:47.823Z,11.20
2022-12-09T09:46:30.229Z,10.80
2022-12-09T09:49:01.521Z,10.43
2022-12-09T09:51:29.266Z,10.82
2022-12-09T09:53:56.378Z,11.02
2022-12-09T09:56:46.004Z,12.25
2022-12-09T09:59:32.694Z,11.13
2022-12-09T10:02:28.455Z,10.88
2022-12-09T10:05:31.698Z,11.95
2022-12-09T10:08:36.669Z,11.57
2022-12-09T10:11:38.903Z,10.02
2022-12-09T10:14:07.077Z,8.80
2022-12-09T10:17:31.285Z,10.13
2022-12-09T10:20:22.809Z,7.72
2022-12-09T10:23:04.084Z,7.85
2022-12-09T10:25:37.823Z,6.80
2022-12-09T10:28:07.316Z,7.03
2022-12-09T10:30:41.675Z,7.13
2022-12-09T10:33:13.873Z,7.93
2022-12-09T10:35:41.536Z,7.55
2022-12-09T10:38:14.825Z,7.40
2022-12-09T10:40:49.042Z,7.45
2022-12-09T10:43:38.916Z,6.90
2022-12-09T10:46:22.044Z,7.88
2022-12-09T10:51:45.014Z,7.57
2022-12-09T10:54:15.423Z,7.82
2022-12-09T10:57:07.259Z,11.30
2022-12-09T10:59:36.037Z,9.43
2022-12-09T11:02:19.128Z,9.57
2022-12-09T11:04:47.184Z,8.77
2022-12-09T11:07:18.257Z,9.45
2022-12-09T11:09:49.096Z,10.30
2022-12-09T11:12:40.089Z,10.32
2022-12-09T11:15:39.003Z,9.90
2022-12-09T11:18:23.855Z,8.15
2022-12-09T11:21:00.005Z,7.18
2022-12-09T11:23:28.013Z,7.18
2022-12-09T11:25:56.542Z,6.50
2022-12-09T11:28:26.951Z,9.02
2022-12-09T11:31:32.720Z,6.68
2022-12-09T11:34:04.429Z,6.55
2022-12-09T11:36:40.671Z,6.05
2022-12-09T11:39:24.570Z,17.55
2022-12-09T11:42:19.035Z,8.93
2022-12-09T11:44:51.981Z,8.57
2022-12-09T11:47:44.847Z,10.07
2022-12-09T11:50:25.986Z,11.25
2022-12-09T11:56:07.209Z,8.48
2022-12-09T11:58:43.394Z,8.55
2022-12-09T12:01:18.141Z,8.27
2022-12-09T12:03:51.375Z,8.63
2022-12-09T12:06:24.558Z,8.80
2022-12-09T12:09:22.391Z,9.77
2022-12-09T12:12:09.158Z,7.35
2022-12-09T12:14:38.417Z,8.70
2022-12-09T12:17:15.305Z,10.13
2022-12-09T12:19:45.527Z,9.35
2022-12-09T12:23:17.213Z,11.73
2022-12-09T12:25:58.036Z,9.32
2022-12-09T12:28:45.865Z,10.70
2022-12-09T12:31:39.154Z,14.73
2022-12-09T12:34:27.732Z,15.53
2022-12-09T12:36:54.280Z,26.40
2022-12-09T12:39:20.775Z,23.13
2022-12-09T12:42:12.348Z,20.33
2022-12-09T12:45:21.397Z,16.92
2022-12-09T12:48:17.273Z,19.95
2022-12-09T12:51:16.856Z,19.08
2022-12-09T12:54:01.538Z,20.02
2022-12-09T12:56:40.200Z,15.60
2022-12-09T12:59:21.973Z,17.77
2022-12-09T13:01:54.309Z,13.77
2022-12-09T13:04:57.611Z,14.20
2022-12-09T13:08:02.005Z,14.52
2022-12-09T13:10:54.783Z,14.63
2022-12-09T13:13:30.093Z,15.18
2022-12-09T13:16:02.834Z,15.65
2022-12-09T13:18:36.430Z,16.83
2022-12-09T13:21:06.056Z,17.80
2022-12-09T13:24:15.933Z,17.83
2022-12-09T13:26:57.690Z,19.30
2022-12-09T13:29:35.771Z,18.83
2022-12-09T13:32:15.143Z,20.30
2022-12-09T13:34:51.473Z,17.52
2022-12-09T13:37:30.485Z,17.00
2022-12-09T13:39:58.687Z,16.85
2022-12-09T13:42:47.090Z,18.35
2022-12-09T13:45:28.626Z,16.45
2022-12-09T13:47:56.948Z,20.05
2022-12-09T13:50:24.837Z,17.98
2022-12-09T13:52:54.515Z,18.90
2022-12-09T13:55:30.550Z,17.88
2022-12-09T13:58:11.621Z,16.58
2022-12-09T14:00:42.311Z,19.38
2022-12-09T14:03:27.710Z,22.10
2022-12-09T14:05:57.566Z,23.23
2022-12-09T14:08:29.009Z,23.60
2022-12-09T14:10:55.723Z,22.42
2022-12-09T14:13:32.403Z,20.48
2022-12-09T14:16:17.582Z,20.55
2022-12-09T14:18:44.768Z,20.98
2022-12-09T14:21:29.503Z,43.25
2022-12-09T14:24:08.845Z,20.85
2022-12-09T14:26:43.956Z,19.50
2022-12-09T14:29:10.944Z,24.23
2022-12-09T14:32:17.561Z,24.05
2022-12-09T14:34:46.274Z,22.27
2022-12-09T14:37:24.933Z,20.88
2022-12-09T14:40:04.150Z,20.52
2022-12-09T14:42:51.871Z,21.70
2022-12-09T14:45:50.320Z,21.30
2022-12-09T14:48:23.845Z,26.42
2022-12-09T14:54:00.526Z,23.52
2022-12-09T14:56:29.451Z,25.92
2022-12-09T14:59:02.797Z,33.00
2022-12-09T15:01:29.425Z,39.47
2022-12-09T15:03:58.977Z,33.38
2022-12-09T15:06:27.044Z,32.33
2022-12-09T15:08:56.639Z,30.58
2022-12-09T15:11:31.546Z,29.90
2022-12-09T15:14:22.665Z,28.15
2022-12-09T15:16:50.946Z,40.13
2022-12-09T15:19:51.033Z,40.20
2022-12-09T15:22:18.720Z,52.38
2022-12-09T15:24:50.737Z,55.65
2022-12-09T15:27:20.937Z,52.13
2022-12-09T15:29:47.789Z,53.47
2022-12-09T15:32:29.984Z,41.85
2022-12-09T15:35:20.941Z,31.48
2022-12-09T15:37:50.899Z,24.30
2022-12-09T15:40:22.308Z,31.17
2022-12-09T15:42:54.656Z,27.65
2022-12-09T15:45:29.231Z,30.48
2022-12-09T15:48:11.078Z,25.73
2022-12-09T15:50:54.706Z,22.33
2022-12-09T15:53:24.851Z,20.17
2022-12-09T15:55:54.154Z,20.40
2022-12-09T15:58:25.812Z,22.58
2022-12-09T16:00:53.897Z,22.48
2022-12-09T16:03:38.088Z,23.75
2022-12-09T16:06:08.532Z,22.95
2022-12-09T16:08:44.289Z,21.80
2022-12-09T16:11:12.155Z,22.67
2022-12-09T16:13:59.021Z,23.45
2022-12-09T16:16:36.286Z,24.40
2022-12-09T16:19:02.906Z,23.40
2022-12-09T16:21:36.324Z,24.33
2022-12-09T16:26:39.961Z,25.25
2022-12-09T16:29:16.513Z,28.42
2022-12-09T16:31:43.377Z,26.50
2022-12-09T16:34:21.422Z,33.88
2022-12-09T16:36:56.406Z,37.55
2022-12-09T16:39:26.083Z,24.65
2022-12-09T16:41:52.562Z,31.05
2022-12-09T16:44:38.653Z,30.80
2022-12-09T16:47:17.543Z,29.77
2022-12-09T16:49:48.578Z,32.28
2022-12-09T16:52:25.352Z,37.10
2022-12-09T16:54:52.062Z,39.42
2022-12-09T16:57:20.418Z,48.50
2022-12-09T16:59:47.380Z,45.30
2022-12-09T17:02:37.821Z,39.00
2022-12-09T17:05:05.335Z,37.22
2022-12-09T17:07:32.100Z,38.33
2022-12-09T17:09:58.746Z,41.22
2022-12-09T17:12:25.364Z,43.72
2022-12-09T17:14:52.537Z,36.63
2022-12-09T17:17:19.257Z,38.42
2022-12-09T17:19:45.956Z,34.85
2022-12-09T17:22:12.504Z,44.25
2022-12-09T17:24:39.280Z,26.25
2022-12-09T17:27:05.847Z,37.40
2022-12-09T17:29:32.399Z,23.33
2022-12-09T17:31:59.047Z,25.92
2022-12-09T17:34:25.899Z,27.98
2022-12-09T17:36:52.558Z,21.60
2022-12-09T17:39:20.292Z,19.77
2022-12-09T17:41:48.929Z,21.38
2022-12-09T17:44:16.244Z,23.92
2022-12-09T17:46:43.192Z,16.63
2022-12-09T17:49:09.802Z,21.48
2022-12-09T17:51:36.762Z,28.83
2022-12-09T17:54:03.621Z,23.75
2022-12-09T17:56:30.192Z,24.25
2022-12-09T17:59:00.900Z,22.40
2022-12-09T18:01:27.658Z,22.08
2022-12-09T18:04:02.628Z,22.27
2022-12-09T18:06:35.054Z,23.95
2022-12-09T18:09:03.540Z,28.77
2022-12-09T18:11:30.250Z,36.80
2022-12-09T18:13:57.083Z,32.58
2022-12-09T18:16:23.743Z,65.55
2022-12-09T18:18:50.924Z,41.25
2022-12-09T18:21:19.762Z,27.77
2022-12-09T18:23:46.709Z,30.55
2022-12-09T18:26:16.154Z,47.20
2022-12-09T18:28:43.609Z,34.97
2022-12-09T18:31:13.243Z,32.05
2022-12-09T18:33:40.593Z,26.92
2022-12-09T18:36:13.085Z,36.10
2022-12-09T18:38:40.974Z,46.13
2022-12-09T18:41:13.163Z,44.45
2022-12-09T18:43:42.762Z,46.08
2022-12-09T18:46:13.567Z,64.05
2022-12-09T18:48:40.875Z,45.30
2022-12-09T18:51:15.727Z,40.35
2022-12-09T18:53:42.340Z,33.33
2022-12-09T18:56:09.144Z,40.30
2022-12-09T18:59:04.642Z,42.65
2022-12-09T19:01:28.068Z,46.30
2022-12-09T19:03:57.326Z,51.08
2022-12-09T19:06:32.888Z,54.90
2022-12-09T19:09:06.105Z,54.50
2022-12-09T19:11:35.010Z,53.53
2022-12-09T19:14:02.713Z,44.25
2022-12-09T19:16:30.498Z,31.70
2022-12-09T19:18:58.038Z,26.70
2022-12-09T19:21:26.239Z,26.88
2022-12-09T19:23:53.808Z,27.38
2022-12-09T19:26:26.412Z,26.70
2022-12-09T19:29:04.600Z,29.10
2022-12-09T19:31:35.676Z,24.98
2022-12-09T19:34:05.441Z,24.38
2022-12-09T19:36:34.260Z,26.50
2022-12-09T19:39:02.336Z,30.35
2022-12-09T19:41:28.928Z,34.20
2022-12-09T19:43:56.871Z,25.65
2022-12-09T19:46:24.157Z,22.02
2022-12-09T19:48:50.730Z,21.50
2022-12-09T19:51:18.631Z,27.98
2022-12-09T19:53:47.294Z,22.50
2022-12-09T19:56:16.558Z,24.05
2022-12-09T19:58:44.017Z,27.88
2022-12-09T20:01:17.131Z,27.38
2022-12-09T20:03:46.986Z,30.20
2022-12-09T20:06:16.226Z,25.23
2022-12-09T20:08:43.824Z,24.70
2022-12-09T20:11:13.941Z,30.17
2022-12-09T20:13:40.801Z,42.10
2022-12-09T20:16:09.819Z,45.03
2022-12-09T20:18:37.250Z,42.55
2022-12-09T20:21:06.150Z,39.33
2022-12-09T20:23:34.699Z,37.45
2022-12-09T20:26:05.891Z,34.90
2022-12-09T20:28:33.215Z,27.10
2022-12-09T20:31:17.056Z,27.42
2022-12-09T20:33:44.451Z,31.17
2022-12-09T20:36:14.522Z,31.85
2022-12-09T20:38:42.312Z,36.35
2022-12-09T20:41:11.763Z,33.85
2022-12-09T20:43:39.737Z,31.67
2022-12-09T20:46:12.093Z,34.90
2022-12-09T20:48:39.876Z,38.63
2022-12-09T20:51:08.989Z,47.20
2022-12-09T20:53:36.622Z,45.05
2022-12-09T20:56:04.599Z,45.20
2022-12-09T20:58:31.288Z,47.25
2022-12-09T21:01:08.311Z,49.50
2022-12-09T21:03:35.414Z,39.67
2022-12-09T21:06:02.472Z,37.30
2022-12-09T21:08:31.716Z,32.20
2022-12-09T21:11:20.297Z,27.05
2022-12-09T21:13:49.874Z,26.35
2022-12-09T21:16:22.737Z,24.08
2022-12-09T21:18:50.658Z,24.42
2022-12-09T21:21:18.974Z,23.83
2022-12-09T21:23:46.354Z,27.25
2022-12-09T21:26:16.857Z,26.63
2022-12-09T21:28:44.620Z,26.00
2022-12-09T21:31:11.262Z,24.58
2022-12-09T21:33:38.757Z,20.52
2022-12-09T21:36:11.277Z,18.90
2022-12-09T21:38:38.278Z,23.27
2022-12-09T21:41:07.459Z,24.80
2022-12-09T21:43:34.953Z,20.65
2022-12-09T21:46:03.218Z,18.05
2022-12-09T21:48:29.866Z,16.45
2022-12-09T21:50:58.279Z,21.50
2022-12-09T21:53:25.273Z,20.42
2022-12-09T21:55:52.610Z,29.45
2022-12-09T21:58:19.730Z,29.27
2022-12-09T22:00:46.687Z,26.52
2022-12-09T22:03:13.328Z,25.92
2022-12-09T22:05:39.844Z,24.70
2022-12-09T22:08:06.441Z,24.30
2022-12-09T22:10:37.736Z,23.60
2022-12-09T22:13:04.597Z,34.28
2022-12-09T22:15:31.857Z,43.85
2022-12-09T22:17:58.412Z,29.77
2022-12-09T22:23:12.358Z,15.73
2022-12-09T22:25:39.413Z,15.48
2022-12-09T22:28:06.040Z,18.38
2022-12-09T22:30:36.373Z,18.48
2022-12-09T22:33:03.234Z,16.48
2022-12-09T22:35:30.089Z,15.75
2022-12-09T22:37:59.213Z,14.93
2022-12-09T22:40:26.106Z,16.60
2022-12-09T22:42:52.736Z,18.23
2022-12-09T22:45:19.342Z,21.48
2022-12-09T22:47:45.909Z,22.35
2022-12-09T22:50:13.013Z,21.70
2022-12-09T22:52:39.583Z,23.85
2022-12-09T22:55:06.560Z,21.33
2022-12-09T22:57:33.258Z,18.88
2022-12-09T22:59:59.816Z,18.75
2022-12-09T23:02:26.396Z,20.80
2022-12-09T23:04:53.004Z,20.45
2022-12-09T23:07:19.598Z,20.10
2022-12-09T23:09:46.161Z,21.75
2022-12-09T23:12:12.784Z,21.83
2022-12-09T23:14:39.422Z,23.48
2022-12-09T23:17:05.962Z,24.67
2022-12-09T23:19:32.670Z,23.38
2022-12-09T23:21:59.231Z,22.00
2022-12-09T23:24:25.857Z,24.35
2022-12-09T23:26:54.697Z,29.55
2022-12-09T23:29:21.377Z,36.63
2022-12-09T23:31:47.968Z,26.42
2022-12-09T23:34:15.415Z,23.92
2022-12-09T23:36:44.425Z,21.10
2022-12-09T23:39:14.586Z,24.02
2022-12-09T23:41:42.473Z,21.75
2022-12-09T23:44:11.066Z,27.30
2022-12-09T23:46:38.484Z,32.78
2022-12-09T23:49:05.626Z,37.53
2022-12-09T23:51:33.347Z,33.30
2022-12-09T23:54:03.001Z,33.10
2022-12-09T23:56:32.770Z,33.00
2022-12-09T23:59:02.127Z,38.65
